Time;durP1;ratioP1;P1;durP2;ratioP2;P2;SDS_P1;SDS_P2;PMS_P1;PMS_P2;Temp;Humidity;BMP_temperature;BMP_pressure;BME280_temperature;BME280_humidity;BME280_pressure;Samples;Min_cycle;Max_cycle;Signal;HPM_P1;HPM_P2
2023/04/13 00:01:31;;;;;;;22.50;15.30;;;;;;;3.91;81.49;99456.34;102649;277;96151;-57
2023/04/13 00:04:17;;;;;;;20.00;15.60;;;;;;;3.89;81.45;99456.19;102663;277;97511;-58
2023/04/13 00:07:01;;;;;;;18.90;13.70;;;;;;;3.82;81.53;99454.52;102608;277;119233;-57
2023/04/13 00:09:36;;;;;;;18.50;13.50;;;;;;;3.76;81.58;99449.99;102642;277;105943;-56
2023/04/13 00:12:12;;;;;;;19.70;14.70;;;;;;;3.74;81.72;99446.70;102655;277;114529;-58
2023/04/13 00:14:49;;;;;;;20.10;14.70;;;;;;;3.71;81.69;99444.77;102614;277;94544;-57
2023/04/13 00:17:29;;;;;;;19.00;14.80;;;;;;;3.68;81.78;99444.70;102657;277;97469;-58
2023/04/13 00:20:10;;;;;;;19.50;14.90;;;;;;;3.65;81.82;99444.50;102635;277;119916;-58
2023/04/13 00:22:50;;;;;;;18.70;14.00;;;;;;;3.62;81.77;99440.56;102536;277;104413;-55
2023/04/13 00:25:29;;;;;;;26.60;16.00;;;;;;;3.59;81.88;99442.43;102600;277;115074;-58
2023/04/13 00:28:09;;;;;;;20.30;14.60;;;;;;;3.58;81.94;99444.54;102575;277;95833;-57
2023/04/13 00:30:52;;;;;;;19.10;14.60;;;;;;;3.54;82.01;99445.58;102650;277;97775;-59
2023/04/13 00:33:34;;;;;;;19.40;14.10;;;;;;;3.50;82.11;99450.45;102637;277;119293;-59
2023/04/13 00:36:10;;;;;;;26.00;14.20;;;;;;;3.51;82.16;99447.75;102640;277;105860;-56
2023/04/13 00:38:53;;;;;;;21.00;14.80;;;;;;;3.59;82.13;99448.38;102638;277;114491;-56
2023/04/13 00:41:38;;;;;;;;;;;;;;;3.65;82.27;99449.64;102610;277;94525;-55
2023/04/13 00:44:18;;;;;;;19.00;14.30;;;;;;;3.67;82.35;99448.05;102626;277;96898;-55
2023/04/13 00:47:01;;;;;;;19.20;14.70;;;;;;;3.63;82.32;99446.83;102634;277;119718;-58
2023/04/13 00:49:45;;;;;;;21.00;14.90;;;;;;;3.53;82.26;99446.35;102620;277;104788;-58
2023/04/13 00:52:23;;;;;;;17.00;13.50;;;;;;;3.41;82.20;99447.13;102594;277;114659;-55
2023/04/13 00:55:02;;;;;;;20.70;14.50;;;;;;;3.36;82.23;99443.05;102578;277;94448;-56
2023/04/13 00:57:40;;;;;;;20.70;13.40;;;;;;;3.30;82.32;99441.29;102615;277;95783;-58
2023/04/13 01:00:17;;;;;;;16.40;12.60;;;;;;;3.26;82.37;99438.80;102623;277;119671;-58
2023/04/13 01:02:53;;;;;;;16.50;13.50;;;;;;;3.25;82.31;99437.54;102621;277;105111;-58
2023/04/13 01:05:35;;;;;;;18.40;13.70;;;;;;;3.18;82.37;99434.97;102632;277;114959;-53
2023/04/13 01:08:23;;;;;;;19.40;13.70;;;;;;;3.12;82.50;99436.49;102612;277;95964;-56
2023/04/13 01:11:05;;;;;;;18.20;13.70;;;;;;;3.12;82.47;99433.59;102616;277;98406;-59
2023/04/13 01:13:49;;;;;;;17.10;13.40;;;;;;;3.09;82.59;99436.59;102601;277;120074;-59
2023/04/13 01:16:30;;;;;;;20.60;14.80;;;;;;;3.04;82.53;99431.80;102695;277;105722;-55
2023/04/13 01:19:15;;;;;;;19.10;14.70;;;;;;;3.05;82.66;99428.89;102628;277;114826;-55
2023/04/13 01:21:59;;;;;;;;;;;;;;;3.08;82.66;99425.69;102543;277;95889;-58
2023/04/13 01:24:52;;;;;;;19.40;13.10;;;;;;;3.09;82.59;99427.59;102643;277;96237;-58
2023/04/13 01:27:43;;;;;;;21.60;15.00;;;;;;;3.08;82.82;99419.83;102296;277;444909;-56
2023/04/13 01:30:21;;;;;;;19.60;13.30;;;;;;;3.01;82.76;99417.75;102541;277;105697;-57
2023/04/13 01:33:02;;;;;;;18.20;13.50;;;;;;;2.92;82.82;99418.52;102652;277;114582;-59
2023/04/13 01:35:45;;;;;;;17.20;13.10;;;;;;;2.89;82.82;99420.02;102642;277;95884;-59
2023/04/13 01:38:25;;;;;;;19.20;13.40;;;;;;;2.90;82.92;99419.66;102644;277;97638;-59
2023/04/13 01:41:08;;;;;;;19.80;14.30;;;;;;;2.92;82.97;99418.30;102678;277;119183;-58
2023/04/13 01:43:46;;;;;;;20.70;14.50;;;;;;;2.93;82.95;99419.67;102647;277;105842;-58
2023/04/13 01:46:29;;;;;;;18.80;13.60;;;;;;;2.92;83.06;99421.84;102671;277;114050;-59
2023/04/13 01:49:12;;;;;;;17.80;12.80;;;;;;;2.93;82.97;99417.36;102634;277;95349;-59
2023/04/13 01:51:58;;;;;;;18.00;12.50;;;;;;;2.92;83.07;99411.99;102642;277;97546;-56
2023/04/13 01:54:39;;;;;;;17.60;12.90;;;;;;;2.86;83.08;99410.27;102611;277;119074;-56
2023/04/13 01:57:21;;;;;;;16.60;11.80;;;;;;;2.76;83.06;99409.61;102690;277;105707;-55
2023/04/13 01:59:57;;;;;;;18.90;12.90;;;;;;;2.71;83.06;99415.16;102630;277;114894;-55
2023/04/13 02:02:39;;;;;;;19.10;13.40;;;;;;;2.70;83.08;99412.17;102665;277;96005;-59
2023/04/13 02:05:16;;;;;;;18.50;13.50;;;;;;;2.68;83.24;99416.55;102662;277;97622;-58
2023/04/13 02:07:51;;;;;;;18.70;13.00;;;;;;;2.65;83.28;99409.88;102653;277;120374;-59
2023/04/13 02:10:33;;;;;;;18.40;13.40;;;;;;;2.60;83.39;99405.98;102691;277;105080;-57
2023/04/13 02:13:14;;;;;;;20.50;13.30;;;;;;;2.53;83.38;99405.55;102639;277;113758;-58
2023/04/13 02:15:49;;;;;;;18.30;12.70;;;;;;;2.52;83.40;99400.55;102584;277;93791;-58
2023/04/13 02:18:25;;;;;;;16.90;12.80;;;;;;;2.53;83.36;99399.98;102696;277;98161;-58
2023/04/13 02:21:08;;;;;;;20.40;14.00;;;;;;;2.53;83.35;99401.22;102636;277;119398;-57
2023/04/13 02:23:51;;;;;;;20.80;14.20;;;;;;;2.47;83.38;99398.17;102685;277;105208;-58
2023/04/13 02:26:35;;;;;;;20.60;14.30;;;;;;;2.42;83.42;99398.02;102645;277;113756;-56
2023/04/13 02:29:21;;;;;;;22.30;14.50;;;;;;;2.39;83.53;99395.95;102636;277;95686;-55
2023/04/13 02:32:03;;;;;;;19.90;14.40;;;;;;;2.34;83.51;99396.14;102690;277;98336;-54
2023/04/13 02:34:44;;;;;;;20.70;15.00;;;;;;;2.35;83.52;99395.84;102701;277;120120;-55
2023/04/13 02:37:30;;;;;;;23.00;14.80;;;;;;;2.39;83.65;99397.98;102685;277;104756;-58
2023/04/13 02:40:10;;;;;;;21.80;15.20;;;;;;;2.38;83.51;99395.31;102680;270;115109;-58
2023/04/13 02:42:52;;;;;;;20.60;15.40;;;;;;;2.39;83.47;99397.71;102677;277;95960;-55
2023/04/13 02:45:30;;;;;;;23.00;15.60;;;;;;;2.38;83.56;99402.34;102675;277;98277;-55
2023/04/13 02:48:18;;;;;;;22.80;15.00;;;;;;;2.37;83.44;99402.96;102635;277;119619;-54
2023/04/13 02:50:59;;;;;;;21.70;15.10;;;;;;;2.31;83.61;99408.41;102674;277;104524;-58
2023/04/13 02:53:42;;;;;;;24.50;16.80;;;;;;;2.27;83.59;99411.97;102676;277;113085;-58
2023/04/13 02:56:21;;;;;;;29.10;17.00;;;;;;;2.25;83.71;99414.58;102680;277;92410;-56
2023/04/13 02:59:00;;;;;;;26.70;19.00;;;;;;;2.22;83.73;99415.68;102542;277;98189;-56
2023/04/13 03:01:44;;;;;;;27.60;18.20;;;;;;;2.22;83.82;99415.88;102513;278;120086;-59
2023/04/13 03:04:27;;;;;;;28.70;19.60;;;;;;;2.23;84.00;99424.88;102541;278;104617;-59
2023/04/13 03:07:07;;;;;;;28.50;19.00;;;;;;;2.19;84.21;99430.61;102559;278;114136;-57
2023/04/13 03:09:47;;;;;;;32.20;19.80;;;;;;;2.20;84.18;99434.64;102524;278;95896;-58
2023/04/13 03:12:33;;;;;;;29.50;19.80;;;;;;;2.18;84.19;99440.84;102532;278;98025;-54
2023/04/13 03:15:11;;;;;;;31.30;21.30;;;;;;;2.17;84.24;99444.19;102520;278;120327;-55
2023/04/13 03:17:52;;;;;;;31.50;21.10;;;;;;;2.16;84.17;99449.27;102528;278;105592;-58
2023/04/13 03:20:33;;;;;;;32.40;22.90;;;;;;;2.12;84.10;99456.82;102531;278;113689;-58
2023/04/13 03:23:18;;;;;;;35.40;22.40;;;;;;;2.09;84.03;99457.77;102489;278;96403;-59
2023/04/13 03:25:58;;;;;;;32.50;22.70;;;;;;;2.09;83.94;99463.67;102536;278;97903;-56
2023/04/13 03:28:34;;;;;;;35.20;21.90;;;;;;;2.12;84.08;99466.73;102520;278;119674;-56
2023/04/13 03:31:17;;;;;;;33.40;23.50;;;;;;;2.13;84.26;99464.61;102555;278;104351;-58
2023/04/13 03:33:59;;;;;;;35.10;25.40;;;;;;;2.18;84.31;99460.78;102488;278;113907;-55
2023/04/13 03:36:41;;;;;;;39.80;26.40;;;;;;;2.23;84.37;99459.54;102528;279;93664;-56
2023/04/13 03:39:26;;;;;;;39.40;24.90;;;;;;;2.27;84.32;99459.48;102536;278;97155;-56
2023/04/13 03:42:03;;;;;;;35.50;24.50;;;;;;;2.28;84.39;99460.39;102513;278;120745;-54
2023/04/13 03:44:43;;;;;;;38.00;25.00;;;;;;;2.26;84.39;99463.05;102541;278;105269;-54
2023/04/13 03:47:28;;;;;;;41.50;24.70;;;;;;;2.29;84.41;99467.43;102523;278;115140;-56
2023/04/13 03:50:04;;;;;;;37.80;24.60;;;;;;;2.34;84.41;99474.67;102497;278;93167;-55
2023/04/13 03:52:44;;;;;;;43.20;27.60;;;;;;;2.41;84.54;99478.58;102555;266;97643;-56
2023/04/13 03:55:21;;;;;;;36.20;25.40;;;;;;;2.49;84.81;99479.11;102517;278;118824;-56
2023/04/13 03:58:04;;;;;;;37.50;25.00;;;;;;;2.61;84.99;99481.42;102567;278;104437;-55
2023/04/13 04:00:44;;;;;;;;;;;;;;;2.70;85.22;99482.08;102548;278;114243;-58
2023/04/13 04:03:24;;;;;;;38.40;25.20;;;;;;;2.83;85.53;99487.02;102524;278;95447;-59
2023/04/13 04:06:04;;;;;;;36.80;24.00;;;;;;;2.97;85.65;99497.43;102556;278;97034;-56
2023/04/13 04:08:48;;;;;;;36.50;23.90;;;;;;;3.13;85.81;99500.80;102548;278;117436;-55
2023/04/13 04:11:28;;;;;;;36.30;25.80;;;;;;;3.27;85.99;99501.05;102547;278;106091;-58
2023/04/13 04:14:10;;;;;;;38.90;26.80;;;;;;;3.45;86.06;99501.52;102524;278;114642;-59
2023/04/13 04:16:53;;;;;;;40.20;26.30;;;;;;;3.64;86.18;99503.02;102516;274;92265;-55
2023/04/13 04:19:38;;;;;;;38.90;26.90;;;;;;;3.81;86.26;99506.45;102521;278;95645;-55
2023/04/13 04:22:19;;;;;;;37.50;24.40;;;;;;;3.92;86.43;99503.60;102525;278;118676;-59
2023/04/13 04:24:58;;;;;;;37.60;25.40;;;;;;;4.02;86.50;99503.86;102545;278;105466;-59
2023/04/13 04:27:37;;;;;;;43.10;26.30;;;;;;;4.17;86.50;99510.48;102553;278;113684;-59
2023/04/13 04:30:20;;;;;;;37.00;25.70;;;;;;;4.33;86.50;99514.31;102522;279;95155;-59
2023/04/13 04:33:02;;;;;;;34.80;25.50;;;;;;;4.48;86.43;99512.42;102480;278;96825;-56
2023/04/13 04:35:48;;;;;;;36.60;25.00;;;;;;;4.63;86.59;99506.70;102548;278;119959;-58
2023/04/13 04:38:31;;;;;;;46.30;26.30;;;;;;;4.75;86.55;99512.96;102513;279;106272;-59
2023/04/13 04:41:12;;;;;;;37.70;24.40;;;;;;;4.84;86.36;99503.70;102565;278;116246;-59
2023/04/13 04:43:56;;;;;;;37.50;24.70;;;;;;;4.93;86.32;99507.66;102537;278;95093;-58
2023/04/13 04:46:37;;;;;;;37.30;25.80;;;;;;;5.04;86.26;99503.34;102541;278;98171;-55
2023/04/13 04:49:17;;;;;;;34.00;24.70;;;;;;;5.16;86.17;99500.64;102533;278;119942;-58
2023/04/13 04:51:54;;;;;;;38.60;25.30;;;;;;;5.30;86.21;99499.91;102588;278;106302;-55
2023/04/13 04:54:42;;;;;;;37.20;27.00;;;;;;;5.46;86.25;99501.47;102566;279;113179;-56
2023/04/13 04:57:17;;;;;;;40.80;27.20;;;;;;;5.59;85.95;99500.67;102599;278;94241;-56
2023/04/13 04:59:50;;;;;;;;;;;;;;;5.69;86.31;99500.73;102543;278;98278;-58
2023/04/13 05:02:32;;;;;;;38.50;27.90;;;;;;;5.83;86.49;99502.08;102534;278;120211;-56
2023/04/13 05:05:09;;;;;;;41.70;27.90;;;;;;;6.01;86.40;99494.95;102501;279;104332;-55
2023/04/13 05:07:48;;;;;;;44.70;29.60;;;;;;;6.21;86.23;99491.78;102428;278;115075;-56
2023/04/13 05:10:31;;;;;;;41.30;28.40;;;;;;;6.32;86.22;99488.73;102510;278;96974;-58
2023/04/13 05:13:16;;;;;;;44.50;29.90;;;;;;;6.35;86.18;99488.45;102561;278;98251;-58
2023/04/13 05:15:56;;;;;;;44.90;31.10;;;;;;;6.51;85.90;99495.80;102523;278;120267;-55
2023/04/13 05:18:48;;;;;;;47.40;29.70;;;;;;;6.65;85.96;99495.02;102542;278;106073;-56
2023/04/13 05:21:27;;;;;;;41.80;28.80;;;;;;;6.85;85.92;99494.45;102513;279;114722;-60
2023/04/13 05:24:07;;;;;;;40.50;28.80;;;;;;;7.15;86.10;99496.16;102511;278;96953;-59
2023/04/13 05:26:43;;;;;;;39.90;29.10;;;;;;;7.48;86.13;99500.98;102686;278;96414;-54
2023/04/13 05:29:26;;;;;;;42.70;28.80;;;;;;;7.87;85.93;99502.23;102594;278;119840;-54
2023/04/13 05:32:03;;;;;;;45.70;31.60;;;;;;;8.67;86.20;99493.89;102577;278;105017;-60
2023/04/13 05:34:39;;;;;;;43.80;30.50;;;;;;;9.51;85.52;99495.08;102516;277;113162;-59
2023/04/13 05:37:17;;;;;;;39.90;30.20;;;;;;;9.79;84.73;99490.36;102559;278;93331;-58
2023/04/13 05:39:56;;;;;;;39.60;30.20;;;;;;;9.88;84.20;99492.86;102571;277;98101;-56
2023/04/13 05:42:31;;;;;;;44.70;30.40;;;;;;;10.61;84.23;99484.22;102595;277;117821;-55
2023/04/13 05:45:10;;;;;;;44.20;29.60;;;;;;;12.36;83.49;99478.44;102531;278;105354;-56
2023/04/13 05:47:50;;;;;;;40.60;29.10;;;;;;;12.95;81.53;99474.52;102601;266;112651;-60
2023/04/13 05:50:30;;;;;;;39.80;28.60;;;;;;;13.53;79.96;99469.92;102575;278;93730;-60
2023/04/13 05:53:11;;;;;;;38.10;26.80;;;;;;;14.05;79.19;99465.44;102540;278;97945;-59
2023/04/13 05:55:50;;;;;;;35.20;25.60;;;;;;;15.55;78.14;99461.73;102546;278;119688;-56
2023/04/13 05:58:33;;;;;;;43.90;28.70;;;;;;;17.32;75.79;99452.53;102572;277;105868;-57
2023/04/13 06:01:11;;;;;;;37.20;25.50;;;;;;;18.65;73.46;99449.10;102537;277;113202;-59
2023/04/13 06:03:46;;;;;;;41.30;26.70;;;;;;;19.69;71.64;99447.05;102555;278;94684;-59
2023/04/13 06:06:23;;;;;;;54.10;27.90;;;;;;;20.55;69.36;99442.23;102575;277;97812;-57
2023/04/13 06:08:58;;;;;;;37.20;24.40;;;;;;;21.48;66.58;99434.94;102565;278;118006;-56
2023/04/13 06:11:36;;;;;;;30.60;23.60;;;;;;;21.64;62.89;99431.16;102540;278;105141;-56
2023/04/13 06:14:15;;;;;;;30.70;23.10;;;;;;;22.21;61.59;99429.20;102497;278;112382;-60
2023/04/13 06:16:53;;;;;;;33.70;25.80;;;;;;;22.55;59.81;99425.74;102555;278;93213;-55
2023/04/13 06:19:40;;;;;;;38.90;25.70;;;;;;;22.86;55.31;99425.85;102521;278;96885;-56
2023/04/13 06:22:25;;;;;;;35.60;23.40;;;;;;;22.70;55.77;99425.36;102477;277;120270;-57
2023/04/13 06:25:03;;;;;;;28.00;23.10;;;;;;;23.49;55.36;99426.09;102503;278;107113;-55
2023/04/13 06:27:42;;;;;;;28.30;21.80;;;;;;;24.34;54.55;99431.84;102489;278;115700;-60
2023/04/13 06:30:21;;;;;;;24.00;19.50;;;;;;;24.76;53.49;99433.80;102544;278;94888;-60
2023/04/13 06:33:03;;;;;;;23.60;15.70;;;;;;;25.17;51.97;99430.69;102556;278;97745;-58
2023/04/13 06:35:47;;;;;;;16.60;11.50;;;;;;;25.39;50.54;99420.28;102527;277;119499;-60
2023/04/13 06:38:33;;;;;;;13.70;12.20;;;;;;;25.43;48.27;99420.52;102515;277;105566;-62
2023/04/13 06:41:10;;;;;;;12.70;11.40;;;;;;;25.35;46.71;99417.98;102567;277;114186;-60
2023/04/13 06:43:46;;;;;;;13.60;12.20;;;;;;;25.85;46.03;99414.27;102547;277;92479;-61
2023/04/13 06:46:26;;;;;;;10.90;9.80;;;;;;;26.18;45.09;99411.45;102598;278;98015;-59
2023/04/13 06:49:04;;;;;;;11.60;10.50;;;;;;;26.13;44.59;99413.70;102568;277;118132;-62
2023/04/13 06:51:45;;;;;;;14.00;11.90;;;;;;;25.91;43.75;99415.92;102634;277;105622;-59
2023/04/13 06:54:29;;;;;;;15.70;12.30;;;;;;;25.87;43.11;99417.98;102489;278;114230;-60
2023/04/13 06:57:17;;;;;;;11.20;10.10;;;;;;;25.55;42.85;99416.89;102610;277;94820;-61
2023/04/13 06:59:56;;;;;;;11.60;10.50;;;;;;;26.02;42.55;99419.04;102511;278;99526;-60
2023/04/13 07:02:39;;;;;;;14.20;11.30;;;;;;;26.38;41.62;99419.31;102559;277;120461;-63
2023/04/13 07:05:21;;;;;;;11.80;10.50;;;;;;;27.07;39.87;99420.80;102511;277;104512;-63
2023/04/13 07:08:01;;;;;;;12.30;11.10;;;;;;;27.25;40.53;99427.02;102549;277;115024;-61
2023/04/13 07:10:41;;;;;;;11.90;10.70;;;;;;;27.74;39.55;99422.61;102607;277;94341;-56
2023/04/13 07:13:20;;;;;;;19.10;11.10;;;;;;;28.30;38.67;99424.05;102529;278;98668;-55
2023/04/13 07:16:00;;;;;;;11.20;9.90;;;;;;;28.03;38.57;99423.33;102590;277;118226;-59
2023/04/13 07:18:40;;;;;;;11.00;10.00;;;;;;;27.99;37.96;99428.59;102596;277;106034;-59
2023/04/13 07:21:17;;;;;;;11.40;10.30;;;;;;;28.34;37.25;99431.22;102498;278;114510;-62
2023/04/13 07:23:53;;;;;;;11.30;10.20;;;;;;;28.30;35.34;99433.02;102569;277;94129;-61
2023/04/13 07:26:37;;;;;;;11.30;10.30;;;;;;;28.14;35.87;99432.45;102593;277;98574;-60
2023/04/13 07:29:23;;;;;;;10.60;9.60;;;;;;;28.62;35.54;99434.85;102499;277;119733;-60
2023/04/13 07:32:07;;;;;;;10.90;9.90;;;;;;;29.05;35.38;99428.30;102581;277;105786;-63
2023/04/13 07:34:44;;;;;;;11.70;10.60;;;;;;;28.63;35.24;99425.38;102538;277;114619;-62
2023/04/13 07:37:30;;;;;;;10.80;9.80;;;;;;;28.38;35.08;99423.63;102561;277;95218;-62
2023/04/13 07:40:11;;;;;;;10.50;9.60;;;;;;;28.68;34.69;99428.05;102515;277;98005;-63
2023/04/13 07:42:55;;;;;;;12.10;10.90;;;;;;;29.35;34.28;99428.49;102553;277;118304;-59
2023/04/13 07:45:32;;;;;;;11.60;10.60;;;;;;;29.36;33.89;99433.52;102574;277;104456;-61
2023/04/13 07:48:07;;;;;;;13.30;12.00;;;;;;;29.44;33.77;99440.02;102555;278;115083;-61
2023/04/13 07:50:49;;;;;;;12.70;11.60;;;;;;;29.40;33.26;99437.41;102545;277;93778;-63
2023/04/13 07:53:30;;;;;;;12.80;11.50;;;;;;;29.80;32.83;99437.41;102589;278;97073;-63
2023/04/13 07:56:06;;;;;;;12.60;11.40;;;;;;;29.75;32.26;99440.41;102549;277;119490;-63
2023/04/13 07:58:49;;;;;;;12.90;11.80;;;;;;;29.73;31.96;99436.96;102543;277;105789;-62
2023/04/13 08:01:30;;;;;;;13.90;12.60;;;;;;;30.13;31.71;99432.06;102529;277;114869;-59
2023/04/13 08:04:12;;;;;;;14.00;12.70;;;;;;;30.62;31.49;99426.61;102540;277;93875;-62
2023/04/13 08:06:52;;;;;;;14.10;12.80;;;;;;;30.64;30.15;99426.36;102565;277;98117;-60
2023/04/13 08:09:35;;;;;;;13.90;12.50;;;;;;;30.11;29.93;99427.79;102592;277;119379;-60
2023/04/13 08:12:14;;;;;;;13.50;12.20;;;;;;;29.59;31.41;99431.49;102565;277;105781;-65
2023/04/13 08:15:04;;;;;;;13.40;12.20;;;;;;;29.35;30.87;99430.60;102570;277;113339;-65
2023/04/13 08:17:42;;;;;;;13.90;12.60;;;;;;;29.08;31.28;99425.42;102594;277;94713;-66
2023/04/13 08:20:27;;;;;;;14.80;13.50;;;;;;;29.11;31.04;99428.75;102579;278;96175;-66
2023/04/13 08:23:09;;;;;;;13.40;12.20;;;;;;;29.63;31.18;99419.98;102552;277;119916;-56
2023/04/13 08:25:50;;;;;;;14.40;13.10;;;;;;;29.73;31.34;99415.05;102571;278;106031;-59
2023/04/13 08:28:31;;;;;;;14.20;12.90;;;;;;;30.49;30.81;99407.19;102542;277;113849;-60
2023/04/13 08:31:07;;;;;;;14.30;12.70;;;;;;;30.16;30.82;99403.84;102581;277;93278;-60
2023/04/13 08:33:49;;;;;;;13.90;12.60;;;;;;;29.57;30.75;99410.44;102566;267;98191;-60
2023/04/13 08:36:31;;;;;;;13.10;11.80;;;;;;;29.86;30.80;99405.59;102558;278;117860;-59
2023/04/13 08:39:12;;;;;;;14.40;12.90;;;;;;;30.11;29.93;99408.34;102533;278;104854;-59
2023/04/13 08:41:51;;;;;;;15.00;13.60;;;;;;;29.54;29.07;99408.92;102581;277;114243;-61
2023/04/13 08:44:32;;;;;;;13.50;12.30;;;;;;;28.51;29.88;99408.45;102537;278;95127;-60
2023/04/13 08:47:20;;;;;;;12.80;11.50;;;;;;;28.61;29.96;99413.88;102617;277;97927;-56
2023/04/13 08:50:03;;;;;;;13.80;12.40;;;;;;;29.16;29.82;99406.21;102546;277;119891;-62
2023/04/13 08:52:39;;;;;;;12.50;11.30;;;;;;;29.35;29.49;99405.48;102640;278;106613;-62
2023/04/13 08:55:19;;;;;;;12.90;11.70;;;;;;;29.17;28.38;99404.82;102621;278;114757;-63
2023/04/13 08:58:03;;;;;;;14.70;13.20;;;;;;;28.87;28.81;99411.92;102636;277;94725;-62
2023/04/13 09:00:42;;;;;;;12.40;11.20;;;;;;;28.64;28.11;99412.16;102679;278;98234;-61
2023/04/13 09:03:24;;;;;;;13.30;11.40;;;;;;;28.57;28.50;99413.06;102612;278;119852;-60
2023/04/13 09:06:06;;;;;;;13.10;11.50;;;;;;;28.08;28.91;99411.30;102696;278;105317;-59
2023/04/13 09:08:45;;;;;;;11.60;10.50;;;;;;;27.34;29.80;99412.96;102652;278;112115;-60
2023/04/13 09:11:26;;;;;;;12.80;11.20;;;;;;;26.81;30.40;99411.01;102594;278;95438;-57
2023/04/13 09:14:04;;;;;;;12.60;11.30;;;;;;;26.87;29.96;99415.89;102568;278;98395;-56
2023/04/13 09:16:48;;;;;;;13.20;12.00;;;;;;;27.15;30.25;99415.14;102647;278;120266;-57
2023/04/13 09:19:33;;;;;;;12.20;11.10;;;;;;;27.57;30.40;99413.09;102504;278;106290;-57
2023/04/13 09:22:18;;;;;;;13.00;11.60;;;;;;;27.68;29.95;99409.93;102642;278;114487;-57
2023/04/13 09:24:57;;;;;;;13.40;12.00;;;;;;;27.03;29.38;99404.89;102620;278;94813;-57
2023/04/13 09:27:39;;;;;;;14.30;11.50;;;;;;;26.69;29.84;99407.90;101871;279;966942;-56
2023/04/13 09:30:19;;;;;;;11.90;10.80;;;;;;;26.46;29.75;99412.44;102625;277;119246;-57
2023/04/13 09:33:06;;;;;;;13.30;11.90;;;;;;;26.45;30.42;99411.27;102666;270;103362;-56
2023/04/13 09:35:52;;;;;;;13.70;11.20;;;;;;;26.08;30.38;99408.27;102696;278;113875;-59
2023/04/13 09:38:35;;;;;;;12.70;11.40;;;;;;;25.30;30.78;99409.11;102596;278;94765;-60
2023/04/13 09:41:13;;;;;;;11.50;10.30;;;;;;;24.68;30.96;99409.39;102676;278;97843;-60
2023/04/13 09:43:58;;;;;;;11.80;10.40;;;;;;;24.18;32.12;99407.56;102592;278;119068;-60
2023/04/13 09:46:38;;;;;;;11.60;10.50;;;;;;;24.20;32.00;99408.89;102671;278;105918;-60
2023/04/13 09:49:14;;;;;;;12.80;11.50;;;;;;;23.63;31.73;99413.48;102617;278;115256;-60
2023/04/13 09:51:55;;;;;;;12.40;11.10;;;;;;;22.70;31.94;99414.36;102627;277;95054;-59
2023/04/13 09:54:37;;;;;;;12.40;11.10;;;;;;;21.86;32.87;99414.45;102657;278;98156;-60
2023/04/13 09:57:25;;;;;;;12.20;11.00;;;;;;;21.67;33.28;99412.66;102617;278;119393;-56
2023/04/13 10:00:13;;;;;;;12.20;10.80;;;;;;;21.61;34.18;99412.65;102614;281;106789;-54
2023/04/13 10:03:00;;;;;;;11.80;10.20;;;;;;;21.37;33.88;99417.30;102574;278;115045;-57
2023/04/13 10:05:47;;;;;;;13.30;11.20;;;;;;;21.09;34.33;99419.03;102642;278;94342;-59
2023/04/13 10:08:29;;;;;;;15.00;12.30;;;;;;;20.71;34.61;99420.31;102671;278;97652;-59
2023/04/13 10:11:15;;;;;;;13.20;11.40;;;;;;;20.58;35.00;99424.02;102625;278;119825;-59
2023/04/13 10:14:07;;;;;;;12.60;11.30;;;;;;;20.41;35.60;99428.95;102613;278;106026;-59
2023/04/13 10:17:06;;;;;;;13.30;11.90;;;;;;;20.35;35.77;99427.20;102595;278;115192;-59
2023/04/13 10:19:48;;;;;;;12.00;10.80;;;;;;;20.04;35.73;99431.79;102612;278;94861;-58
2023/04/13 10:22:31;;;;;;;12.20;10.50;;;;;;;19.82;36.22;99432.17;102641;278;98195;-56
2023/04/13 10:25:12;;;;;;;11.80;10.00;;;;;;;19.72;36.61;99428.88;102599;278;119896;-56
2023/04/13 10:28:01;;;;;;;13.00;10.50;;;;;;;19.82;36.62;99429.77;102637;278;105519;-55
2023/04/13 10:30:48;;;;;;;12.60;11.30;;;;;;;19.76;36.77;99435.08;102726;278;114407;-56
2023/04/13 10:33:30;;;;;;;11.40;10.20;;;;;;;19.49;36.36;99434.16;102548;278;94161;-55
2023/04/13 10:36:08;;;;;;;10.60;8.70;;;;;;;19.32;36.53;99434.48;102634;278;97546;-55
2023/04/13 10:38:50;;;;;;;11.30;10.10;;;;;;;19.28;37.03;99433.73;102606;278;119746;-55
2023/04/13 10:41:30;;;;;;;11.80;10.30;;;;;;;19.46;37.10;99432.72;102554;278;105432;-57
2023/04/13 10:44:11;;;;;;;11.90;9.80;;;;;;;19.48;37.01;99431.73;102573;277;115067;-57
2023/04/13 10:47:04;;;;;;;10.60;9.60;;;;;;;19.52;36.82;99432.41;102589;277;94189;-59
2023/04/13 10:49:40;;;;;;;12.60;9.80;;;;;;;19.71;36.79;99430.69;102642;278;96918;-59
2023/04/13 10:52:15;;;;;;;9.90;8.90;;;;;;;19.91;36.79;99434.98;102579;278;119402;-55
2023/04/13 10:54:50;;;;;;;9.90;8.50;;;;;;;19.88;36.84;99430.10;102615;277;105698;-55
2023/04/13 10:57:33;;;;;;;11.20;9.50;;;;;;;19.84;36.30;99429.28;102626;278;112323;-61
2023/04/13 11:00:20;;;;;;;9.40;8.50;;;;;;;19.61;36.18;99427.88;102609;277;94305;-60
2023/04/13 11:03:08;;;;;;;10.10;9.10;;;;;;;19.40;36.49;99428.59;102620;277;97654;-57
2023/04/13 11:05:47;;;;;;;10.10;9.00;;;;;;;19.29;36.68;99425.75;102541;277;119791;-59
2023/04/13 11:08:24;;;;;;;10.00;8.80;;;;;;;19.11;36.11;99425.85;102605;277;106377;-60
2023/04/13 11:11:00;;;;;;;8.50;7.70;;;;;;;18.85;36.65;99424.37;102584;278;114414;-59
2023/04/13 11:13:46;;;;;;;10.50;8.20;;;;;;;18.91;37.01;99426.55;102559;278;92678;-56
2023/04/13 11:16:20;;;;;;;9.70;7.40;;;;;;;19.08;36.94;99421.02;102632;277;98474;-59
2023/04/13 11:19:04;;;;;;;10.10;8.20;;;;;;;19.01;36.81;99420.45;102599;278;120207;-60
2023/04/13 11:21:44;;;;;;;7.90;6.90;;;;;;;19.16;36.84;99413.27;102595;278;105587;-58
2023/04/13 11:24:35;;;;;;;9.10;8.20;;;;;;;19.08;37.07;99413.69;102550;277;114600;-59
2023/04/13 11:27:20;;;;;;;9.10;7.80;;;;;;;19.04;37.14;99416.24;102596;277;93983;-56
2023/04/13 11:30:11;;;;;;;8.80;7.60;;;;;;;18.85;36.73;99414.45;102583;277;97692;-56
2023/04/13 11:32:57;;;;;;;9.70;8.40;;;;;;;18.60;36.77;99415.23;102583;277;117468;-57
2023/04/13 11:35:33;;;;;;;9.20;8.00;;;;;;;18.59;37.21;99414.45;102600;277;105431;-57
2023/04/13 11:38:17;;;;;;;10.40;7.80;;;;;;;18.67;36.95;99416.30;102588;278;114769;-57
2023/04/13 11:41:06;;;;;;;9.20;6.90;;;;;;;18.71;36.13;99412.71;102602;278;94694;-56
2023/04/13 11:43:41;;;;;;;8.20;7.40;;;;;;;18.70;36.29;99413.80;102566;277;98307;-55
2023/04/13 11:46:23;;;;;;;8.30;7.40;;;;;;;18.64;35.94;99411.69;102596;277;119644;-56
2023/04/13 11:49:09;;;;;;;10.00;7.70;;;;;;;18.48;36.28;99412.90;102593;278;105955;-56
2023/04/13 11:51:50;;;;;;;9.60;8.60;;;;;;;18.33;36.19;99415.80;102604;277;114489;-56
2023/04/13 11:54:33;;;;;;;9.40;8.40;;;;;;;18.13;36.48;99414.56;102542;277;94054;-55
2023/04/13 11:57:22;;;;;;;10.10;8.90;;;;;;;18.10;37.04;99412.02;102570;275;97460;-60
2023/04/13 12:00:12;;;;;;;9.30;7.60;;;;;;;18.03;37.13;99412.25;102598;277;119192;-60
2023/04/13 12:02:53;;;;;;;9.50;8.30;;;;;;;18.00;37.17;99413.41;102527;277;103861;-56
2023/04/13 12:05:33;;;;;;;9.40;8.00;;;;;;;17.97;37.37;99414.27;102598;277;114070;-58
2023/04/13 12:08:20;;;;;;;9.90;8.50;;;;;;;17.96;37.51;99407.88;102562;277;94501;-59
2023/04/13 12:11:04;;;;;;;11.60;9.00;;;;;;;17.85;37.55;99409.59;102583;277;98273;-59
2023/04/13 12:13:49;;;;;;;9.30;8.20;;;;;;;17.78;37.74;99407.92;102528;277;120332;-58
2023/04/13 12:16:32;;;;;;;8.60;7.80;;;;;;;17.77;37.79;99406.02;102589;277;104476;-59
2023/04/13 12:19:23;;;;;;;9.20;7.40;;;;;;;17.80;37.93;99409.10;102524;277;114369;-58
2023/04/13 12:21:59;;;;;;;9.40;7.60;;;;;;;17.91;38.42;99403.09;102576;278;94259;-59
2023/04/13 12:24:39;;;;;;;9.50;8.10;;;;;;;17.91;38.52;99404.93;102519;277;97636;-59